Flight Track Log - Related Links

Times and Time Zones

All times are in EDT time to prevent confusion due to time zone crossing. See the VH-NWO flight status page for this flight to view local times or setup timezone preferences in your user account.

Time Position Orientation Groundspeed Altitude Reporting Facility
EDT Latitude Longitude Course Direction KTS MPH feet Rate Location/Type
Sat 07:07:21 AM -31.5266 118.2376 262° West 14,000  Level Aus ATC (Calculated)
Sat 07:07:44 AM -31.5266 118.2376 262° West 14,000 -973 Level Aus ATC (Calculated)
Sat 07:08:12 AM -31.5266 118.2376 262° West 14,000 -1,111 Level Aus ATC (Calculated)
Sat 07:08:56 AM -31.5296 118.1649 251° West 14,000 -1,343 Level Aus ATC (Calculated)
Sat 07:10:00 AM -31.5326 118.0882 267° West  Level FlightAware Approximate
Sat 07:10:26 AM -31.5390 118.1336 267° West 158 182 11,000  Level Aus ATC (RADAR)
Sat 07:11:02 AM -31.5453 118.1036 256° West 162 186 11,800 1,440 Climbing Aus ATC (RADAR)
Sat 07:11:41 AM -31.5521 118.0694 257° West 164 189 12,800 1,217 Climbing Aus ATC (RADAR)
Sat 07:12:11 AM -31.5576 118.0419 257° West 173 199 13,200 1,200 Climbing Aus ATC (RADAR)
Sat 07:12:51 AM -31.5638 118.0036 259° West 180 207 14,200 1,040 Climbing Aus ATC (RADAR)
Sat 07:13:26 AM -31.5720 117.9681 255° West 194 223 14,500 277 Climbing Aus ATC (RADAR)
Sat 07:13:56 AM -31.5782 117.9333 258° West 214 246 14,500  Level Aus ATC (RADAR)
Sat 07:14:36 AM -31.5882 117.8815 257° West 240 276 14,500  Level Aus ATC (RADAR)
Sat 07:15:06 AM -31.5962 117.8412 257° West 249 287 14,500  Level Aus ATC (RADAR)
Sat 07:15:41 AM -31.6052 117.7931 258° West 253 291 14,500  Level Aus ATC (RADAR)
Sat 07:16:21 AM -31.6161 117.7375 257° West 258 297 14,500  Level Aus ATC (RADAR)
Sat 07:16:51 AM -31.6242 117.6955 257° West 257 296 14,500  Level Aus ATC (RADAR)
Sat 07:17:31 AM -31.6352 117.6394 257° West 261 300 14,500 -484 Level Aus ATC (RADAR)
Sat 07:17:53 AM -31.6420 117.6090 256° West 264 304 14,000  Descending FlightAware ADS-B
Sat 07:18:06 AM -31.6439 117.5900 258° West 260 299 14,500 625 Climbing Aus ATC (RADAR)
Sat 07:18:41 AM -31.6540 117.5409 256° West 261 300 14,500 -577 Level Aus ATC (RADAR)
Sat 07:18:58 AM -31.6590 117.5220 257° West 265 305 14,000 -517 Descending FlightAware ADS-B
Sat 07:19:39 AM -31.6700 117.4680 257° West 265 305 14,000  Level FlightAware ADS-B
Sat 07:20:15 AM -31.6780 117.4260 257° West 265 305 14,000 652 Level FlightAware ADS-B
Sat 07:20:25 AM -31.6821 117.3932 257° West 261 300 14,500 667 Climbing Aus ATC (RADAR)
Sat 07:21:00 AM -31.6917 117.3439 257° West 260 299 14,500 -667 Level Aus ATC (RADAR)
Sat 07:21:10 AM -31.6920 117.3480 257° West 264 304 14,000 -577 Descending FlightAware ADS-B
Sat 07:21:52 AM -31.7060 117.2770 257° West 263 303 14,000  Level FlightAware ADS-B
Sat 07:22:33 AM -31.7170 117.2140 258° West 262 302 14,000  Level FlightAware ADS-B
Sat 07:23:13 AM -31.7280 117.1590 258° West 261 300 14,000 638 Level FlightAware ADS-B
Sat 07:23:20 AM -31.7287 117.1478 258° West 256 295 14,500 714 Climbing Aus ATC (RADAR)
Sat 07:23:55 AM -31.7380 117.0991 258° West 257 296 14,500 -789 Level Aus ATC (RADAR)
Sat 07:23:58 AM -31.7400 117.0950 258° West 260 299 14,000  Descending FlightAware ADS-B
Sat 07:24:30 AM -31.7473 117.0505 258° West 256 295 14,500  Climbing Aus ATC (RADAR)
Sat 07:24:38 AM -31.7500 117.0400 258° West 261 300 14,000 -625 Descending FlightAware ADS-B
Sat 07:25:18 AM -31.7600 116.9850 258° West 259 298 14,000  Level FlightAware ADS-B
Sat 07:26:03 AM -31.7710 116.9230 258° West 258 297 14,000  Level FlightAware ADS-B
Sat 07:26:43 AM -31.7820 116.8670 258° West 258 297 14,000 638 Level FlightAware ADS-B
Sat 07:26:50 AM -31.7826 116.8572 258° West 253 291 14,500 714 Climbing Aus ATC (RADAR)
Sat 07:27:25 AM -31.7919 116.8090 258° West 254 292 14,500 -789 Level Aus ATC (RADAR)
Sat 07:27:28 AM -31.7930 116.8050 258° West 258 297 14,000 -1,138 Descending FlightAware ADS-B
Sat 07:28:23 AM -31.8070 116.7290 258° West 258 297 13,400 -667 Descending FlightAware ADS-B
Sat 07:28:58 AM -31.8160 116.6820 257° West 243 280 13,000 79 Descending FlightAware ADS-B
Sat 07:29:39 AM -31.8252 116.6280 257° West 238 274 13,500  Climbing Aus ATC (RADAR)
Sat 07:29:43 AM -31.8260 116.6240 257° West 246 283 13,000  Descending FlightAware ADS-B
Sat 07:30:14 AM -31.8333 116.5814 257° West 244 281 13,500  Climbing Aus ATC (RADAR)
Sat 07:30:18 AM -31.8340 116.5770 257° West 254 292 13,000  Descending FlightAware ADS-B
Sat 07:30:49 AM -31.8424 116.5337 257° West 250 288 13,500 273 Climbing Aus ATC (RADAR)
Sat 07:31:24 AM -31.8611 116.4896 243° Southwest 254 292 13,300 -878 Descending Aus ATC (RADAR)
Sat 07:31:30 AM -31.8580 116.4980 243° Southwest 261 300 12,900 -1,560 Descending FlightAware ADS-B
Sat 07:32:14 AM -31.8820 116.4420 243° Southwest 248 285 12,000 -1,012 Descending FlightAware ADS-B
Sat 07:32:53 AM -31.9020 116.3930 243° Southwest 244 281 11,500 -267 Descending FlightAware ADS-B
Sat 07:32:59 AM -31.9089 116.3731 243° Southwest 237 273 11,800 -1,500 Climbing Aus ATC (RADAR)
Sat 07:33:37 AM -31.9280 116.3250 246° West 252 290 10,400 -2,111 Descending FlightAware ADS-B
Sat 07:33:53 AM -31.9350 116.3060 247° West 254 292 9,900 -1,800 Descending FlightAware ADS-B
Sat 07:34:17 AM -31.9470 116.2740 246° West 253 291 9,200 -1,959 Descending FlightAware ADS-B
Sat 07:34:42 AM -31.9590 116.2430 245° Southwest 251 289 8,300 -2,057 Descending FlightAware ADS-B
Sat 07:34:52 AM -31.9640 116.2300 246° West 249 287 8,000 -1,674 Descending FlightAware ADS-B
Sat 07:35:25 AM -31.9790 116.1930 244° Southwest 247 284 7,100 -1,714 Descending FlightAware ADS-B
Sat 07:35:55 AM -31.9930 116.1550 247° West 254 292 6,200 -1,667 Descending FlightAware ADS-B
Sat 07:36:19 AM -32.0030 116.1300 245° Southwest 251 289 5,600 -1,698 Descending FlightAware ADS-B
Sat 07:36:48 AM -32.0170 116.0920 247° West 249 287 4,700 -1,714 Descending FlightAware ADS-B
Sat 07:37:15 AM -32.0270 116.0670 245° Southwest 248 285 4,000 -1,610 Descending FlightAware ADS-B
Sat 07:37:29 AM -32.0340 116.0490 245° Southwest 245 282 3,600 -2,286 Descending FlightAware ADS-B
Sat 07:37:57 AM -32.0520 116.0020 246° West 228 262 2,400 -2,154 Descending FlightAware ADS-B
Sat 07:38:08 AM -32.0560 115.9900 249° West 222 255 2,200 -1,067 Descending FlightAware ADS-B
Sat 07:38:42 AM -32.0700 115.9540 249° West 197 227 1,600 -171 Descending FlightAware ADS-B
Sat 07:38:43 AM -32.0705 115.9529 249° West 200 230 2,100 -1,385 Climbing Aus ATC (RADAR)
Sat 07:39:08 AM -32.0800 115.9300 244° Southwest 189 217 1,000 -1,500 Descending FlightAware ADS-B
Sat 07:39:43 AM -32.0990 115.9030 230° Southwest 162 186 600 -407 Descending FlightAware ADS-B
Sat 07:40:07 AM -32.1110 115.8900 223° Southwest 136 157 600 -111 Level FlightAware ADS-B
Sat 07:40:37 AM -32.1220 115.8750 229° Southwest 115 132 500 -293 Descending FlightAware ADS-B
Sat 07:40:48 AM -32.1240 115.8680 251° West 123 142 400  Descending FlightAware ADS-B
Sat 07:41:28 AM -32.1092 115.8583 251° West 106 122 500 150 Climbing Aus ATC (RADAR)

Login

Don't have an account? Register now (free) for customized features, flight alerts, and more!